sensor_id;sensor_type;location;lat;lon;timestamp;P1;durP1;ratioP1;P2;durP2;ratioP2
1691;SDS011;843;52.054;8.552;2023-02-28T00:02:25;11.53;;;7.57;;
1691;SDS011;843;52.054;8.552;2023-02-28T00:04:52;9.97;;;7.07;;
1691;SDS011;843;52.054;8.552;2023-02-28T00:07:27;8.35;;;7.25;;
1691;SDS011;843;52.054;8.552;2023-02-28T00:09:54;10.37;;;7.63;;
1691;SDS011;843;52.054;8.552;2023-02-28T00:12:20;10.80;;;7.73;;
1691;SDS011;843;52.054;8.552;2023-02-28T00:14:47;9.90;;;7.90;;
1691;SDS011;843;52.054;8.552;2023-02-28T00:17:14;8.67;;;7.10;;
1691;SDS011;843;52.054;8.552;2023-02-28T00:19:42;10.13;;;7.73;;
1691;SDS011;843;52.054;8.552;2023-02-28T00:22:09;14.90;;;8.40;;
1691;SDS011;843;52.054;8.552;2023-02-28T00:24:37;12.23;;;7.67;;
1691;SDS011;843;52.054;8.552;2023-02-28T00:27:04;9.23;;;7.60;;
1691;SDS011;843;52.054;8.552;2023-02-28T00:29:31;9.23;;;7.40;;
1691;SDS011;843;52.054;8.552;2023-02-28T00:31:57;10.03;;;7.43;;
1691;SDS011;843;52.054;8.552;2023-02-28T00:34:24;10.63;;;7.53;;
1691;SDS011;843;52.054;8.552;2023-02-28T00:36:50;16.30;;;7.60;;
1691;SDS011;843;52.054;8.552;2023-02-28T00:39:17;13.77;;;7.97;;
1691;SDS011;843;52.054;8.552;2023-02-28T00:41:45;11.50;;;8.07;;
1691;SDS011;843;52.054;8.552;2023-02-28T00:44:12;9.13;;;7.10;;
1691;SDS011;843;52.054;8.552;2023-02-28T00:46:38;8.20;;;6.73;;
1691;SDS011;843;52.054;8.552;2023-02-28T00:49:05;11.33;;;7.30;;
1691;SDS011;843;52.054;8.552;2023-02-28T00:51:32;11.07;;;7.17;;
1691;SDS011;843;52.054;8.552;2023-02-28T00:53:58;11.13;;;7.40;;
1691;SDS011;843;52.054;8.552;2023-02-28T00:56:25;10.13;;;7.20;;
1691;SDS011;843;52.054;8.552;2023-02-28T00:58:53;8.37;;;7.43;;
1691;SDS011;843;52.054;8.552;2023-02-28T01:01:20;13.10;;;7.90;;
1691;SDS011;843;52.054;8.552;2023-02-28T01:03:46;10.73;;;7.47;;
1691;SDS011;843;52.054;8.552;2023-02-28T01:06:13;13.37;;;7.63;;
1691;SDS011;843;52.054;8.552;2023-02-28T01:08:39;9.27;;;7.17;;
1691;SDS011;843;52.054;8.552;2023-02-28T01:11:07;8.57;;;7.07;;
1691;SDS011;843;52.054;8.552;2023-02-28T01:13:34;10.17;;;7.17;;
1691;SDS011;843;52.054;8.552;2023-02-28T01:16:02;12.30;;;7.30;;
1691;SDS011;843;52.054;8.552;2023-02-28T01:18:29;9.77;;;6.20;;
1691;SDS011;843;52.054;8.552;2023-02-28T01:20:56;12.07;;;7.90;;
1691;SDS011;843;52.054;8.552;2023-02-28T01:23:23;9.83;;;7.60;;
1691;SDS011;843;52.054;8.552;2023-02-28T01:25:50;9.07;;;7.27;;
1691;SDS011;843;52.054;8.552;2023-02-28T01:28:17;7.17;;;6.37;;
1691;SDS011;843;52.054;8.552;2023-02-28T01:30:47;8.38;;;6.85;;
1691;SDS011;843;52.054;8.552;2023-02-28T01:33:15;9.82;;;7.60;;
1691;SDS011;843;52.054;8.552;2023-02-28T01:35:42;7.70;;;6.10;;
1691;SDS011;843;52.054;8.552;2023-02-28T01:38:08;9.10;;;6.30;;
1691;SDS011;843;52.054;8.552;2023-02-28T01:40:35;9.17;;;6.63;;
1691;SDS011;843;52.054;8.552;2023-02-28T01:43:02;9.20;;;6.43;;
1691;SDS011;843;52.054;8.552;2023-02-28T01:45:28;11.32;;;8.02;;
1691;SDS011;843;52.054;8.552;2023-02-28T01:47:57;10.98;;;7.38;;
1691;SDS011;843;52.054;8.552;2023-02-28T01:50:27;10.30;;;6.77;;
1691;SDS011;843;52.054;8.552;2023-02-28T01:52:56;9.87;;;7.37;;
1691;SDS011;843;52.054;8.552;2023-02-28T01:55:24;8.23;;;6.90;;
1691;SDS011;843;52.054;8.552;2023-02-28T01:57:54;8.57;;;6.47;;
1691;SDS011;843;52.054;8.552;2023-02-28T02:00:23;11.13;;;7.28;;
1691;SDS011;843;52.054;8.552;2023-02-28T02:02:53;8.68;;;7.13;;
1691;SDS011;843;52.054;8.552;2023-02-28T02:05:21;8.27;;;7.38;;
1691;SDS011;843;52.054;8.552;2023-02-28T02:07:51;8.40;;;7.60;;
1691;SDS011;843;52.054;8.552;2023-02-28T02:10:21;7.63;;;6.20;;
1691;SDS011;843;52.054;8.552;2023-02-28T02:12:59;14.33;;;7.07;;
1691;SDS011;843;52.054;8.552;2023-02-28T02:15:32;9.90;;;7.00;;
1691;SDS011;843;52.054;8.552;2023-02-28T02:18:02;9.13;;;7.83;;
1691;SDS011;843;52.054;8.552;2023-02-28T02:20:55;10.43;;;7.70;;
1691;SDS011;843;52.054;8.552;2023-02-28T02:26:54;19.30;;;7.65;;
1691;SDS011;843;52.054;8.552;2023-02-28T02:29:31;12.10;;;7.65;;
1691;SDS011;843;52.054;8.552;2023-02-28T02:32:14;14.95;;;6.90;;
1691;SDS011;843;52.054;8.552;2023-02-28T02:34:57;9.67;;;6.60;;
1691;SDS011;843;52.054;8.552;2023-02-28T02:37:29;8.70;;;6.90;;
1691;SDS011;843;52.054;8.552;2023-02-28T02:40:02;7.93;;;7.23;;
1691;SDS011;843;52.054;8.552;2023-02-28T02:42:34;12.13;;;7.07;;
1691;SDS011;843;52.054;8.552;2023-02-28T02:45:06;8.50;;;7.40;;
1691;SDS011;843;52.054;8.552;2023-02-28T02:47:36;10.30;;;7.20;;
1691;SDS011;843;52.054;8.552;2023-02-28T02:50:06;8.93;;;7.00;;
1691;SDS011;843;52.054;8.552;2023-02-28T02:52:38;9.60;;;6.93;;
1691;SDS011;843;52.054;8.552;2023-02-28T02:55:05;8.73;;;6.55;;
1691;SDS011;843;52.054;8.552;2023-02-28T02:57:36;9.13;;;6.28;;
1691;SDS011;843;52.054;8.552;2023-02-28T03:00:07;9.27;;;6.53;;
1691;SDS011;843;52.054;8.552;2023-02-28T03:02:35;7.85;;;6.22;;
1691;SDS011;843;52.054;8.552;2023-02-28T03:05:04;9.00;;;6.20;;
1691;SDS011;843;52.054;8.552;2023-02-28T03:07:35;14.03;;;6.80;;
1691;SDS011;843;52.054;8.552;2023-02-28T03:10:01;7.00;;;6.30;;
1691;SDS011;843;52.054;8.552;2023-02-28T03:12:31;9.37;;;6.93;;
1691;SDS011;843;52.054;8.552;2023-02-28T03:15:11;10.33;;;6.27;;
1691;SDS011;843;52.054;8.552;2023-02-28T03:17:46;10.02;;;7.07;;
1691;SDS011;843;52.054;8.552;2023-02-28T03:20:19;8.45;;;6.43;;
1691;SDS011;843;52.054;8.552;2023-02-28T03:22:57;8.03;;;6.63;;
1691;SDS011;843;52.054;8.552;2023-02-28T03:25:29;10.88;;;7.75;;
1691;SDS011;843;52.054;8.552;2023-02-28T03:28:00;8.38;;;6.68;;
1691;SDS011;843;52.054;8.552;2023-02-28T03:30:32;10.35;;;6.25;;
1691;SDS011;843;52.054;8.552;2023-02-28T03:33:03;10.23;;;7.23;;
1691;SDS011;843;52.054;8.552;2023-02-28T03:35:34;8.35;;;6.97;;
1691;SDS011;843;52.054;8.552;2023-02-28T03:38:05;8.40;;;6.80;;
1691;SDS011;843;52.054;8.552;2023-02-28T03:40:34;8.20;;;7.03;;
1691;SDS011;843;52.054;8.552;2023-02-28T03:43:04;8.67;;;6.43;;
1691;SDS011;843;52.054;8.552;2023-02-28T03:45:35;10.60;;;6.50;;
1691;SDS011;843;52.054;8.552;2023-02-28T03:48:05;8.40;;;6.80;;
1691;SDS011;843;52.054;8.552;2023-02-28T03:50:37;10.15;;;7.70;;
1691;SDS011;843;52.054;8.552;2023-02-28T03:53:06;9.20;;;6.88;;
1691;SDS011;843;52.054;8.552;2023-02-28T03:55:37;9.32;;;6.38;;
1691;SDS011;843;52.054;8.552;2023-02-28T03:58:07;7.93;;;6.10;;
1691;SDS011;843;52.054;8.552;2023-02-28T04:00:40;6.73;;;6.13;;
1691;SDS011;843;52.054;8.552;2023-02-28T04:03:11;7.80;;;6.67;;
1691;SDS011;843;52.054;8.552;2023-02-28T04:05:46;6.85;;;6.15;;
1691;SDS011;843;52.054;8.552;2023-02-28T04:08:15;10.43;;;6.70;;
1691;SDS011;843;52.054;8.552;2023-02-28T04:10:42;8.00;;;6.88;;
1691;SDS011;843;52.054;8.552;2023-02-28T04:13:11;13.05;;;6.60;;
1691;SDS011;843;52.054;8.552;2023-02-28T04:15:38;8.05;;;6.47;;
1691;SDS011;843;52.054;8.552;2023-02-28T04:18:05;10.65;;;6.03;;
1691;SDS011;843;52.054;8.552;2023-02-28T04:20:32;8.50;;;6.70;;
1691;SDS011;843;52.054;8.552;2023-02-28T04:23:00;9.10;;;6.70;;
1691;SDS011;843;52.054;8.552;2023-02-28T04:25:27;9.02;;;6.50;;
1691;SDS011;843;52.054;8.552;2023-02-28T04:27:53;6.50;;;5.80;;
1691;SDS011;843;52.054;8.552;2023-02-28T04:30:20;10.40;;;6.30;;
1691;SDS011;843;52.054;8.552;2023-02-28T04:32:47;16.67;;;7.72;;
1691;SDS011;843;52.054;8.552;2023-02-28T04:35:13;7.05;;;6.35;;
1691;SDS011;843;52.054;8.552;2023-02-28T04:37:40;8.77;;;6.65;;
1691;SDS011;843;52.054;8.552;2023-02-28T04:40:09;9.95;;;6.93;;
1691;SDS011;843;52.054;8.552;2023-02-28T04:42:36;8.10;;;7.32;;
1691;SDS011;843;52.054;8.552;2023-02-28T04:45:03;8.20;;;6.45;;
1691;SDS011;843;52.054;8.552;2023-02-28T04:47:31;10.07;;;7.70;;
1691;SDS011;843;52.054;8.552;2023-02-28T04:49:57;9.18;;;7.15;;
1691;SDS011;843;52.054;8.552;2023-02-28T04:52:24;9.90;;;8.20;;
1691;SDS011;843;52.054;8.552;2023-02-28T04:54:51;6.95;;;6.00;;
1691;SDS011;843;52.054;8.552;2023-02-28T04:57:19;14.68;;;7.55;;
1691;SDS011;843;52.054;8.552;2023-02-28T04:59:45;9.85;;;7.22;;
1691;SDS011;843;52.054;8.552;2023-02-28T05:02:12;8.68;;;6.93;;
1691;SDS011;843;52.054;8.552;2023-02-28T05:04:38;11.63;;;7.07;;
1691;SDS011;843;52.054;8.552;2023-02-28T05:07:05;10.52;;;7.25;;
1691;SDS011;843;52.054;8.552;2023-02-28T05:09:32;11.15;;;8.00;;
1691;SDS011;843;52.054;8.552;2023-02-28T05:11:59;18.92;;;8.07;;
1691;SDS011;843;52.054;8.552;2023-02-28T05:14:27;9.02;;;7.47;;
1691;SDS011;843;52.054;8.552;2023-02-28T05:16:54;11.07;;;7.65;;
1691;SDS011;843;52.054;8.552;2023-02-28T05:19:20;10.43;;;7.50;;
1691;SDS011;843;52.054;8.552;2023-02-28T05:21:51;13.70;;;8.10;;
1691;SDS011;843;52.054;8.552;2023-02-28T05:24:18;9.95;;;6.97;;
1691;SDS011;843;52.054;8.552;2023-02-28T05:26:48;11.07;;;8.35;;
1691;SDS011;843;52.054;8.552;2023-02-28T05:29:16;9.77;;;8.20;;
1691;SDS011;843;52.054;8.552;2023-02-28T05:31:44;10.07;;;7.88;;
1691;SDS011;843;52.054;8.552;2023-02-28T05:34:10;12.90;;;9.05;;
1691;SDS011;843;52.054;8.552;2023-02-28T05:36:37;13.88;;;9.15;;
1691;SDS011;843;52.054;8.552;2023-02-28T05:39:04;9.60;;;8.05;;
1691;SDS011;843;52.054;8.552;2023-02-28T05:41:32;10.25;;;8.52;;
1691;SDS011;843;52.054;8.552;2023-02-28T05:43:58;8.27;;;7.18;;
1691;SDS011;843;52.054;8.552;2023-02-28T05:46:26;13.65;;;7.85;;
1691;SDS011;843;52.054;8.552;2023-02-28T05:48:54;10.48;;;8.45;;
1691;SDS011;843;52.054;8.552;2023-02-28T05:51:22;10.80;;;8.80;;
1691;SDS011;843;52.054;8.552;2023-02-28T05:53:49;10.45;;;7.82;;
1691;SDS011;843;52.054;8.552;2023-02-28T05:56:16;29.17;;;8.70;;
1691;SDS011;843;52.054;8.552;2023-02-28T05:58:42;12.00;;;7.72;;
1691;SDS011;843;52.054;8.552;2023-02-28T06:01:19;15.18;;;8.93;;
1691;SDS011;843;52.054;8.552;2023-02-28T06:03:48;11.40;;;9.20;;
1691;SDS011;843;52.054;8.552;2023-02-28T06:06:16;10.13;;;8.20;;
1691;SDS011;843;52.054;8.552;2023-02-28T06:08:43;10.02;;;7.35;;
1691;SDS011;843;52.054;8.552;2023-02-28T06:11:10;10.50;;;7.85;;
1691;SDS011;843;52.054;8.552;2023-02-28T06:13:37;10.43;;;8.80;;
1691;SDS011;843;52.054;8.552;2023-02-28T06:16:04;13.45;;;8.95;;
1691;SDS011;843;52.054;8.552;2023-02-28T06:18:32;12.60;;;8.75;;
1691;SDS011;843;52.054;8.552;2023-02-28T06:20:58;11.20;;;8.50;;
1691;SDS011;843;52.054;8.552;2023-02-28T06:23:26;9.20;;;8.30;;
1691;SDS011;843;52.054;8.552;2023-02-28T06:25:53;9.88;;;8.50;;
1691;SDS011;843;52.054;8.552;2023-02-28T06:28:23;12.07;;;9.52;;
1691;SDS011;843;52.054;8.552;2023-02-28T06:30:50;9.43;;;8.45;;
1691;SDS011;843;52.054;8.552;2023-02-28T06:33:16;12.50;;;9.82;;
1691;SDS011;843;52.054;8.552;2023-02-28T06:35:43;11.55;;;8.85;;
1691;SDS011;843;52.054;8.552;2023-02-28T06:38:10;12.23;;;10.50;;
1691;SDS011;843;52.054;8.552;2023-02-28T06:40:38;11.65;;;9.68;;
1691;SDS011;843;52.054;8.552;2023-02-28T06:43:05;12.10;;;10.02;;
1691;SDS011;843;52.054;8.552;2023-02-28T06:45:32;11.77;;;9.75;;
1691;SDS011;843;52.054;8.552;2023-02-28T06:47:58;13.40;;;9.93;;
1691;SDS011;843;52.054;8.552;2023-02-28T06:50:25;11.23;;;10.03;;
1691;SDS011;843;52.054;8.552;2023-02-28T06:52:54;11.23;;;10.07;;
1691;SDS011;843;52.054;8.552;2023-02-28T06:55:21;10.47;;;9.17;;
1691;SDS011;843;52.054;8.552;2023-02-28T06:57:49;14.70;;;9.70;;
1691;SDS011;843;52.054;8.552;2023-02-28T07:00:16;11.20;;;9.30;;
1691;SDS011;843;52.054;8.552;2023-02-28T07:02:43;13.10;;;10.10;;
1691;SDS011;843;52.054;8.552;2023-02-28T07:05:09;14.27;;;10.07;;
1691;SDS011;843;52.054;8.552;2023-02-28T07:07:36;10.17;;;9.17;;
1691;SDS011;843;52.054;8.552;2023-02-28T07:10:05;14.70;;;9.93;;
1691;SDS011;843;52.054;8.552;2023-02-28T07:12:33;14.57;;;10.03;;
1691;SDS011;843;52.054;8.552;2023-02-28T07:15:00;12.53;;;10.17;;
1691;SDS011;843;52.054;8.552;2023-02-28T07:17:28;11.27;;;8.87;;
1691;SDS011;843;52.054;8.552;2023-02-28T07:19:54;10.37;;;8.37;;
1691;SDS011;843;52.054;8.552;2023-02-28T07:22:21;11.50;;;8.33;;
1691;SDS011;843;52.054;8.552;2023-02-28T07:24:48;13.57;;;8.80;;
1691;SDS011;843;52.054;8.552;2023-02-28T07:27:14;8.20;;;7.20;;
1691;SDS011;843;52.054;8.552;2023-02-28T07:29:48;8.93;;;8.03;;
1691;SDS011;843;52.054;8.552;2023-02-28T07:32:16;9.90;;;8.60;;
1691;SDS011;843;52.054;8.552;2023-02-28T07:34:43;8.93;;;7.93;;
1691;SDS011;843;52.054;8.552;2023-02-28T07:37:10;10.23;;;7.97;;
1691;SDS011;843;52.054;8.552;2023-02-28T07:39:36;10.87;;;8.00;;
1691;SDS011;843;52.054;8.552;2023-02-28T07:42:04;13.83;;;7.87;;
1691;SDS011;843;52.054;8.552;2023-02-28T07:44:31;10.87;;;7.83;;
1691;SDS011;843;52.054;8.552;2023-02-28T07:46:57;9.60;;;8.07;;
1691;SDS011;843;52.054;8.552;2023-02-28T07:49:25;9.47;;;8.23;;
1691;SDS011;843;52.054;8.552;2023-02-28T07:51:52;13.20;;;9.73;;
1691;SDS011;843;52.054;8.552;2023-02-28T07:54:19;10.70;;;8.93;;
1691;SDS011;843;52.054;8.552;2023-02-28T07:56:45;11.30;;;8.37;;
1691;SDS011;843;52.054;8.552;2023-02-28T07:59:12;8.50;;;6.90;;
1691;SDS011;843;52.054;8.552;2023-02-28T08:01:38;10.57;;;8.13;;
1691;SDS011;843;52.054;8.552;2023-02-28T08:04:05;8.67;;;6.83;;
1691;SDS011;843;52.054;8.552;2023-02-28T08:06:33;7.50;;;6.47;;
1691;SDS011;843;52.054;8.552;2023-02-28T08:09:00;10.20;;;7.50;;
1691;SDS011;843;52.054;8.552;2023-02-28T08:11:26;9.97;;;7.90;;
1691;SDS011;843;52.054;8.552;2023-02-28T08:13:54;8.97;;;7.20;;
1691;SDS011;843;52.054;8.552;2023-02-28T08:16:20;10.20;;;7.43;;
1691;SDS011;843;52.054;8.552;2023-02-28T08:18:48;8.13;;;7.33;;
1691;SDS011;843;52.054;8.552;2023-02-28T08:21:15;7.00;;;5.43;;
1691;SDS011;843;52.054;8.552;2023-02-28T08:23:43;8.10;;;7.00;;
1691;SDS011;843;52.054;8.552;2023-02-28T08:26:10;7.90;;;6.50;;
1691;SDS011;843;52.054;8.552;2023-02-28T08:28:36;7.83;;;6.97;;
1691;SDS011;843;52.054;8.552;2023-02-28T08:31:08;7.83;;;6.37;;
1691;SDS011;843;52.054;8.552;2023-02-28T08:33:35;8.60;;;5.87;;
1691;SDS011;843;52.054;8.552;2023-02-28T08:36:04;7.60;;;6.80;;
1691;SDS011;843;52.054;8.552;2023-02-28T08:38:31;8.33;;;6.10;;
1691;SDS011;843;52.054;8.552;2023-02-28T08:41:00;5.80;;;4.80;;
1691;SDS011;843;52.054;8.552;2023-02-28T08:43:28;6.80;;;5.13;;
1691;SDS011;843;52.054;8.552;2023-02-28T08:45:55;5.37;;;4.87;;
1691;SDS011;843;52.054;8.552;2023-02-28T08:48:22;6.17;;;5.57;;
1691;SDS011;843;52.054;8.552;2023-02-28T08:50:55;5.67;;;5.10;;
1691;SDS011;843;52.054;8.552;2023-02-28T08:53:23;6.43;;;5.67;;
1691;SDS011;843;52.054;8.552;2023-02-28T08:55:55;6.77;;;6.07;;
1691;SDS011;843;52.054;8.552;2023-02-28T08:58:24;8.40;;;7.00;;
1691;SDS011;843;52.054;8.552;2023-02-28T09:00:51;9.60;;;6.30;;
1691;SDS011;843;52.054;8.552;2023-02-28T09:03:17;9.80;;;6.20;;
1691;SDS011;843;52.054;8.552;2023-02-28T09:05:51;7.27;;;5.70;;
1691;SDS011;843;52.054;8.552;2023-02-28T09:08:18;5.83;;;5.23;;
1691;SDS011;843;52.054;8.552;2023-02-28T09:10:45;5.77;;;5.07;;
1691;SDS011;843;52.054;8.552;2023-02-28T09:13:12;5.57;;;4.37;;
1691;SDS011;843;52.054;8.552;2023-02-28T09:15:40;7.97;;;4.87;;
1691;SDS011;843;52.054;8.552;2023-02-28T09:18:06;7.17;;;4.83;;
1691;SDS011;843;52.054;8.552;2023-02-28T09:20:33;4.63;;;4.07;;
1691;SDS011;843;52.054;8.552;2023-02-28T09:23:00;5.93;;;5.00;;
1691;SDS011;843;52.054;8.552;2023-02-28T09:25:26;6.87;;;4.73;;
1691;SDS011;843;52.054;8.552;2023-02-28T09:27:53;6.90;;;5.03;;
1691;SDS011;843;52.054;8.552;2023-02-28T09:30:20;5.50;;;4.40;;
1691;SDS011;843;52.054;8.552;2023-02-28T09:32:48;4.83;;;4.40;;
1691;SDS011;843;52.054;8.552;2023-02-28T09:35:17;8.30;;;4.13;;
1691;SDS011;843;52.054;8.552;2023-02-28T09:37:43;4.70;;;3.80;;
1691;SDS011;843;52.054;8.552;2023-02-28T09:40:11;6.90;;;3.97;;
1691;SDS011;843;52.054;8.552;2023-02-28T09:42:39;6.10;;;4.30;;
1691;SDS011;843;52.054;8.552;2023-02-28T09:45:21;4.53;;;3.73;;
1691;SDS011;843;52.054;8.552;2023-02-28T09:47:51;5.30;;;3.80;;
1691;SDS011;843;52.054;8.552;2023-02-28T09:50:20;6.20;;;4.40;;
1691;SDS011;843;52.054;8.552;2023-02-28T09:52:50;5.03;;;4.00;;
1691;SDS011;843;52.054;8.552;2023-02-28T09:55:19;4.03;;;3.23;;
1691;SDS011;843;52.054;8.552;2023-02-28T09:57:47;4.77;;;3.40;;
1691;SDS011;843;52.054;8.552;2023-02-28T10:00:17;3.00;;;2.70;;
1691;SDS011;843;52.054;8.552;2023-02-28T10:02:47;4.13;;;2.90;;
1691;SDS011;843;52.054;8.552;2023-02-28T10:05:32;5.67;;;2.73;;
1691;SDS011;843;52.054;8.552;2023-02-28T10:08:02;3.73;;;2.33;;
1691;SDS011;843;52.054;8.552;2023-02-28T10:10:35;3.43;;;2.60;;
1691;SDS011;843;52.054;8.552;2023-02-28T10:13:05;3.37;;;2.80;;
1691;SDS011;843;52.054;8.552;2023-02-28T10:15:38;6.00;;;2.63;;
1691;SDS011;843;52.054;8.552;2023-02-28T10:18:06;6.80;;;3.77;;
1691;SDS011;843;52.054;8.552;2023-02-28T10:20:39;5.87;;;4.17;;
1691;SDS011;843;52.054;8.552;2023-02-28T10:23:09;2.07;;;1.50;;
1691;SDS011;843;52.054;8.552;2023-02-28T10:25:38;2.50;;;1.50;;
1691;SDS011;843;52.054;8.552;2023-02-28T10:28:09;1.80;;;1.47;;
1691;SDS011;843;52.054;8.552;2023-02-28T10:30:37;2.70;;;1.90;;
1691;SDS011;843;52.054;8.552;2023-02-28T10:33:08;1.93;;;1.10;;
1691;SDS011;843;52.054;8.552;2023-02-28T10:35:41;4.90;;;1.50;;
1691;SDS011;843;52.054;8.552;2023-02-28T10:38:10;1.60;;;1.50;;
1691;SDS011;843;52.054;8.552;2023-02-28T10:40:44;2.80;;;1.60;;
1691;SDS011;843;52.054;8.552;2023-02-28T10:43:21;1.97;;;1.30;;
1691;SDS011;843;52.054;8.552;2023-02-28T10:45:53;2.40;;;1.70;;
1691;SDS011;843;52.054;8.552;2023-02-28T10:48:30;2.00;;;1.60;;
1691;SDS011;843;52.054;8.552;2023-02-28T10:51:00;2.27;;;1.77;;
1691;SDS011;843;52.054;8.552;2023-02-28T10:53:30;2.53;;;1.87;;
1691;SDS011;843;52.054;8.552;2023-02-28T10:55:59;3.40;;;2.57;;
1691;SDS011;843;52.054;8.552;2023-02-28T10:58:28;3.40;;;2.07;;
1691;SDS011;843;52.054;8.552;2023-02-28T11:00:56;2.03;;;1.33;;
1691;SDS011;843;52.054;8.552;2023-02-28T11:03:23;2.00;;;1.57;;
1691;SDS011;843;52.054;8.552;2023-02-28T11:05:54;2.03;;;1.33;;
1691;SDS011;843;52.054;8.552;2023-02-28T11:08:22;3.17;;;1.37;;
1691;SDS011;843;52.054;8.552;2023-02-28T11:10:54;5.90;;;1.80;;
1691;SDS011;843;52.054;8.552;2023-02-28T11:13:32;2.40;;;1.70;;
1691;SDS011;843;52.054;8.552;2023-02-28T11:16:00;2.50;;;1.50;;
1691;SDS011;843;52.054;8.552;2023-02-28T11:18:29;2.90;;;1.50;;
1691;SDS011;843;52.054;8.552;2023-02-28T11:20:57;4.20;;;2.93;;
1691;SDS011;843;52.054;8.552;2023-02-28T11:23:28;1.90;;;1.40;;
1691;SDS011;843;52.054;8.552;2023-02-28T11:25:58;1.87;;;1.47;;
1691;SDS011;843;52.054;8.552;2023-02-28T11:28:27;2.00;;;1.50;;
1691;SDS011;843;52.054;8.552;2023-02-28T11:31:04;2.63;;;1.20;;
1691;SDS011;843;52.054;8.552;2023-02-28T11:33:40;3.87;;;1.30;;
1691;SDS011;843;52.054;8.552;2023-02-28T11:36:11;2.70;;;1.10;;
1691;SDS011;843;52.054;8.552;2023-02-28T11:38:40;4.23;;;1.50;;
1691;SDS011;843;52.054;8.552;2023-02-28T11:41:11;2.87;;;1.60;;
1691;SDS011;843;52.054;8.552;2023-02-28T11:44:04;2.20;;;1.90;;
1691;SDS011;843;52.054;8.552;2023-02-28T11:46:37;2.10;;;1.40;;
1691;SDS011;843;52.054;8.552;2023-02-28T11:49:12;3.00;;;1.43;;
1691;SDS011;843;52.054;8.552;2023-02-28T11:51:47;1.90;;;1.43;;
1691;SDS011;843;52.054;8.552;2023-02-28T11:57:03;3.03;;;1.30;;
1691;SDS011;843;52.054;8.552;2023-02-28T11:59:47;3.30;;;1.80;;
1691;SDS011;843;52.054;8.552;2023-02-28T12:02:26;5.07;;;2.07;;
1691;SDS011;843;52.054;8.552;2023-02-28T12:05:08;2.97;;;1.70;;
1691;SDS011;843;52.054;8.552;2023-02-28T12:07:42;3.03;;;1.87;;
1691;SDS011;843;52.054;8.552;2023-02-28T12:10:19;1.70;;;1.50;;
1691;SDS011;843;52.054;8.552;2023-02-28T12:12:49;2.00;;;1.63;;
1691;SDS011;843;52.054;8.552;2023-02-28T12:18:25;5.33;;;3.50;;
1691;SDS011;843;52.054;8.552;2023-02-28T12:20:59;6.63;;;3.70;;
1691;SDS011;843;52.054;8.552;2023-02-28T12:26:34;2.37;;;2.17;;
1691;SDS011;843;52.054;8.552;2023-02-28T12:29:05;3.20;;;2.00;;
1691;SDS011;843;52.054;8.552;2023-02-28T12:31:40;3.40;;;2.20;;
1691;SDS011;843;52.054;8.552;2023-02-28T12:34:11;3.60;;;2.00;;
1691;SDS011;843;52.054;8.552;2023-02-28T12:36:40;2.27;;;1.80;;
1691;SDS011;843;52.054;8.552;2023-02-28T12:39:08;3.03;;;1.93;;
1691;SDS011;843;52.054;8.552;2023-02-28T12:41:41;3.40;;;2.30;;
1691;SDS011;843;52.054;8.552;2023-02-28T12:44:11;2.50;;;1.97;;
1691;SDS011;843;52.054;8.552;2023-02-28T12:46:41;4.33;;;2.30;;
1691;SDS011;843;52.054;8.552;2023-02-28T12:49:10;2.80;;;2.30;;
1691;SDS011;843;52.054;8.552;2023-02-28T12:51:39;2.90;;;2.57;;
1691;SDS011;843;52.054;8.552;2023-02-28T12:54:10;2.93;;;2.20;;
1691;SDS011;843;52.054;8.552;2023-02-28T12:56:44;3.47;;;2.70;;
1691;SDS011;843;52.054;8.552;2023-02-28T12:59:16;2.77;;;2.07;;
1691;SDS011;843;52.054;8.552;2023-02-28T13:05:03;3.57;;;2.13;;
1691;SDS011;843;52.054;8.552;2023-02-28T13:07:56;3.83;;;2.20;;
1691;SDS011;843;52.054;8.552;2023-02-28T13:10:40;3.13;;;2.10;;
1691;SDS011;843;52.054;8.552;2023-02-28T13:13:13;2.73;;;2.33;;
1691;SDS011;843;52.054;8.552;2023-02-28T13:15:56;3.23;;;2.20;;
1691;SDS011;843;52.054;8.552;2023-02-28T13:18:28;2.87;;;2.03;;
1691;SDS011;843;52.054;8.552;2023-02-28T13:20:57;3.77;;;2.33;;
1691;SDS011;843;52.054;8.552;2023-02-28T13:29:31;3.43;;;2.23;;
1691;SDS011;843;52.054;8.552;2023-02-28T13:35:14;2.50;;;2.30;;
1691;SDS011;843;52.054;8.552;2023-02-28T13:38:09;3.87;;;2.40;;
1691;SDS011;843;52.054;8.552;2023-02-28T13:40:49;3.50;;;2.13;;
1691;SDS011;843;52.054;8.552;2023-02-28T13:43:16;4.13;;;2.07;;
1691;SDS011;843;52.054;8.552;2023-02-28T13:48:33;12.27;;;6.43;;
1691;SDS011;843;52.054;8.552;2023-02-28T13:50:59;10.47;;;6.10;;
1691;SDS011;843;52.054;8.552;2023-02-28T13:53:35;6.37;;;3.40;;
1691;SDS011;843;52.054;8.552;2023-02-28T13:56:19;6.53;;;2.30;;
1691;SDS011;843;52.054;8.552;2023-02-28T13:59:01;5.70;;;3.40;;
1691;SDS011;843;52.054;8.552;2023-02-28T14:01:40;3.80;;;2.57;;
1691;SDS011;843;52.054;8.552;2023-02-28T14:07:21;40.00;;;15.17;;
1691;SDS011;843;52.054;8.552;2023-02-28T14:09:52;3.83;;;2.80;;
1691;SDS011;843;52.054;8.552;2023-02-28T14:15:26;5.33;;;2.80;;
1691;SDS011;843;52.054;8.552;2023-02-28T14:18:14;5.40;;;2.27;;
1691;SDS011;843;52.054;8.552;2023-02-28T14:20:44;2.67;;;2.47;;
1691;SDS011;843;52.054;8.552;2023-02-28T14:23:13;4.07;;;2.47;;
1691;SDS011;843;52.054;8.552;2023-02-28T14:25:47;3.57;;;2.73;;
1691;SDS011;843;52.054;8.552;2023-02-28T14:28:21;3.37;;;2.33;;
1691;SDS011;843;52.054;8.552;2023-02-28T14:30:53;4.10;;;2.70;;
1691;SDS011;843;52.054;8.552;2023-02-28T14:33:31;4.27;;;2.13;;
1691;SDS011;843;52.054;8.552;2023-02-28T14:36:14;3.43;;;2.50;;
1691;SDS011;843;52.054;8.552;2023-02-28T14:38:46;5.30;;;3.20;;
1691;SDS011;843;52.054;8.552;2023-02-28T14:41:16;3.57;;;2.37;;
1691;SDS011;843;52.054;8.552;2023-02-28T14:43:53;2.70;;;2.33;;
1691;SDS011;843;52.054;8.552;2023-02-28T14:46:22;3.03;;;2.30;;
1691;SDS011;843;52.054;8.552;2023-02-28T14:48:54;3.67;;;2.50;;
1691;SDS011;843;52.054;8.552;2023-02-28T14:51:22;2.37;;;2.17;;
1691;SDS011;843;52.054;8.552;2023-02-28T14:53:50;5.50;;;2.40;;
1691;SDS011;843;52.054;8.552;2023-02-28T14:56:22;3.00;;;2.40;;
1691;SDS011;843;52.054;8.552;2023-02-28T14:58:51;3.10;;;2.43;;
1691;SDS011;843;52.054;8.552;2023-02-28T15:01:19;7.47;;;2.53;;
1691;SDS011;843;52.054;8.552;2023-02-28T15:03:48;3.60;;;2.80;;
1691;SDS011;843;52.054;8.552;2023-02-28T15:06:25;2.50;;;2.30;;
1691;SDS011;843;52.054;8.552;2023-02-28T15:09:06;3.03;;;2.67;;
1691;SDS011;843;52.054;8.552;2023-02-28T15:11:34;5.50;;;2.57;;
1691;SDS011;843;52.054;8.552;2023-02-28T15:14:01;3.50;;;2.73;;
1691;SDS011;843;52.054;8.552;2023-02-28T15:16:29;3.40;;;2.80;;
1691;SDS011;843;52.054;8.552;2023-02-28T15:19:00;3.87;;;2.80;;
1691;SDS011;843;52.054;8.552;2023-02-28T15:21:29;4.93;;;3.13;;
1691;SDS011;843;52.054;8.552;2023-02-28T15:23:58;4.20;;;2.93;;
1691;SDS011;843;52.054;8.552;2023-02-28T15:26:29;4.93;;;2.93;;
1691;SDS011;843;52.054;8.552;2023-02-28T15:28:57;3.53;;;2.60;;
1691;SDS011;843;52.054;8.552;2023-02-28T15:31:26;6.10;;;3.37;;
1691;SDS011;843;52.054;8.552;2023-02-28T15:33:54;5.83;;;4.00;;
1691;SDS011;843;52.054;8.552;2023-02-28T15:36:23;12.00;;;6.60;;
1691;SDS011;843;52.054;8.552;2023-02-28T15:38:52;4.80;;;3.50;;
1691;SDS011;843;52.054;8.552;2023-02-28T15:41:24;3.20;;;2.90;;
1691;SDS011;843;52.054;8.552;2023-02-28T15:46:44;2.70;;;2.50;;
1691;SDS011;843;52.054;8.552;2023-02-28T15:49:19;3.90;;;3.50;;
1691;SDS011;843;52.054;8.552;2023-02-28T15:51:48;4.27;;;3.20;;
1691;SDS011;843;52.054;8.552;2023-02-28T15:54:17;3.43;;;2.70;;
1691;SDS011;843;52.054;8.552;2023-02-28T15:56:46;3.80;;;2.73;;
1691;SDS011;843;52.054;8.552;2023-02-28T15:59:15;7.60;;;3.80;;
1691;SDS011;843;52.054;8.552;2023-02-28T16:01:44;2.97;;;2.43;;
1691;SDS011;843;52.054;8.552;2023-02-28T16:04:13;5.37;;;3.50;;
1691;SDS011;843;52.054;8.552;2023-02-28T16:06:42;5.23;;;2.87;;
1691;SDS011;843;52.054;8.552;2023-02-28T16:09:12;3.60;;;3.30;;
1691;SDS011;843;52.054;8.552;2023-02-28T16:11:41;6.13;;;3.00;;
1691;SDS011;843;52.054;8.552;2023-02-28T16:14:13;3.70;;;3.10;;
1691;SDS011;843;52.054;8.552;2023-02-28T16:16:43;2.80;;;2.60;;
1691;SDS011;843;52.054;8.552;2023-02-28T16:19:10;3.70;;;2.60;;